| Date | Time | Temp. (oF) | Dew Point (oF) | Rel. Hum. (%) | Press. (in.) | Wind Dir. | Wind Speed (mph) | Hourly Rainfall (in.) |
|
|---|---|---|---|---|---|---|---|---|---|
| 1 | 04/04 | 00:00 | 46 | 44 | 96 | 29.94 | SSE | 3 | 0.00 |
| 2 | 04/03 | 23:00 | 46 | 44 | 95 | 29.93 | ESE | 10 | 0.00 |
| 3 | 04/03 | 22:00 | 49 | 45 | 89 | 29.94 | E | 4 | 0.00 |
| 4 | 04/03 | 21:00 | 53 | 47 | 82 | 29.94 | E | 5 | 0.00 |
| 5 | 04/03 | 20:00 | 57 | 49 | 76 | 29.92 | ESE | 13 | 0.00 |
| 6 | 04/03 | 19:00 | 62 | 52 | 70 | 29.88 | SE | 10 | 0.00 |
| 7 | 04/03 | 18:00 | 67 | 53 | 62 | 29.87 | SE | 3 | 0.00 |
| 8 | 04/03 | 17:00 | 70 | 53 | 57 | 29.86 | SE | 6 | 0.00 |
| 9 | 04/03 | 16:00 | 72 | 55 | 57 | 29.85 | NW | 3 | 0.00 |
| 10 | 04/03 | 15:00 | 72 | 55 | 57 | 29.88 | ESE | 4 | 0.00 |
| 11 | 04/03 | 14:00 | 69 | 54 | 61 | 29.92 | ENE | 9 | 0.00 |
| 12 | 04/03 | 13:00 | 68 | 55 | 64 | 29.95 | E | 5 | 0.00 |
| 13 | 04/03 | 12:00 | 63 | 52 | 68 | 29.98 | ESE | 5 | 0.00 |
| 14 | 04/03 | 11:00 | 58 | 49 | 73 | 30.01 | NE | 3 | 0.00 |
| 15 | 04/03 | 10:00 | 53 | 45 | 77 | 30.03 | SE | 3 | 0.00 |
| 16 | 04/03 | 09:00 | 51 | 45 | 81 | 30.03 | SE | 1 | 0.00 |
| 17 | 04/03 | 08:00 | 47 | 43 | 89 | 30.03 | E | 0 | 0.00 |
| 18 | 04/03 | 07:00 | 43 | 41 | 94 | 30.03 | SE | 0 | 0.00 |
| 19 | 04/03 | 06:00 | 42 | 40 | 93 | 30.01 | NNE | 3 | 0.00 |
| 20 | 04/03 | 05:00 | 44 | 41 | 92 | 29.99 | ENE | 5 | 0.00 |
| 21 | 04/03 | 04:00 | 45 | 41 | 89 | 29.97 | ESE | 3 | 0.00 |
| 22 | 04/03 | 03:00 | 47 | 43 | 86 | 29.96 | NE | 2 | 0.00 |
| 23 | 04/03 | 02:00 | 51 | 45 | 82 | 29.95 | E | 11 | 0.00 |
| 24 | 04/03 | 01:00 | 55 | 47 | 76 | 29.94 | NE | 6 | 0.00 |